sensor_id;sensor_type;location;lat;lon;timestamp;noise_LAeq;noise_LA_min;noise_LA_max;noise_LA01;noise_LA95
66888;Laerm;67239;51.680;5.976;2024-03-08T00:00:15;33.89;31.16;42.35;;
66888;Laerm;67239;51.680;5.976;2024-03-08T00:02:47;33.54;30.97;46.77;;
66888;Laerm;67239;51.680;5.976;2024-03-08T00:05:15;54.43;31.33;72.35;;
66888;Laerm;67239;51.680;5.976;2024-03-08T00:07:42;59.47;32.09;77.45;;
66888;Laerm;67239;51.680;5.976;2024-03-08T00:10:12;35.23;32.09;43.93;;
66888;Laerm;67239;51.680;5.976;2024-03-08T00:12:44;34.24;31.90;37.60;;
66888;Laerm;67239;51.680;5.976;2024-03-08T00:15:15;55.17;31.93;73.04;;
66888;Laerm;67239;51.680;5.976;2024-03-08T00:17:46;34.08;31.38;37.56;;
66888;Laerm;67239;51.680;5.976;2024-03-08T00:20:16;33.52;31.11;36.24;;
66888;Laerm;67239;51.680;5.976;2024-03-08T00:22:46;33.75;31.40;41.37;;
66888;Laerm;67239;51.680;5.976;2024-03-08T00:25:13;34.05;31.23;41.46;;
66888;Laerm;67239;51.680;5.976;2024-03-08T00:27:41;56.52;31.42;74.91;;
66888;Laerm;67239;51.680;5.976;2024-03-08T00:30:09;56.65;32.14;74.93;;
66888;Laerm;67239;51.680;5.976;2024-03-08T00:32:38;35.05;31.46;46.84;;
66888;Laerm;67239;51.680;5.976;2024-03-08T00:35:05;34.76;31.70;42.05;;
66888;Laerm;67239;51.680;5.976;2024-03-08T00:37:36;34.12;31.66;36.99;;
66888;Laerm;67239;51.680;5.976;2024-03-08T00:40:04;35.08;32.04;45.64;;
66888;Laerm;67239;51.680;5.976;2024-03-08T00:42:35;53.72;32.58;70.43;;
66888;Laerm;67239;51.680;5.976;2024-03-08T00:45:02;33.73;31.39;36.78;;
66888;Laerm;67239;51.680;5.976;2024-03-08T00:47:30;33.60;31.23;37.47;;
66888;Laerm;67239;51.680;5.976;2024-03-08T00:49:57;33.27;30.45;36.29;;
66888;Laerm;67239;51.680;5.976;2024-03-08T00:52:24;34.39;31.47;40.78;;
66888;Laerm;67239;51.680;5.976;2024-03-08T00:54:52;33.32;30.67;38.94;;
66888;Laerm;67239;51.680;5.976;2024-03-08T00:57:19;34.32;30.46;39.47;;
66888;Laerm;67239;51.680;5.976;2024-03-08T00:59:46;33.62;30.99;39.56;;
66888;Laerm;67239;51.680;5.976;2024-03-08T01:02:14;34.54;31.87;42.24;;
66888;Laerm;67239;51.680;5.976;2024-03-08T01:04:41;36.49;31.38;46.48;;
66888;Laerm;67239;51.680;5.976;2024-03-08T01:07:08;34.82;32.21;38.96;;
66888;Laerm;67239;51.680;5.976;2024-03-08T01:09:35;34.79;31.67;43.00;;
66888;Laerm;67239;51.680;5.976;2024-03-08T01:12:03;35.61;31.84;47.33;;
66888;Laerm;67239;51.680;5.976;2024-03-08T01:14:30;52.79;31.16;70.02;;
66888;Laerm;67239;51.680;5.976;2024-03-08T01:16:58;34.22;31.33;40.59;;
66888;Laerm;67239;51.680;5.976;2024-03-08T01:19:26;36.73;31.91;47.08;;
66888;Laerm;67239;51.680;5.976;2024-03-08T01:21:53;34.31;31.17;40.45;;
66888;Laerm;67239;51.680;5.976;2024-03-08T01:24:22;34.08;31.66;37.52;;
66888;Laerm;67239;51.680;5.976;2024-03-08T01:26:50;33.38;30.94;40.72;;
66888;Laerm;67239;51.680;5.976;2024-03-08T01:29:17;33.59;31.38;36.41;;
66888;Laerm;67239;51.680;5.976;2024-03-08T01:31:44;35.03;31.50;43.26;;
66888;Laerm;67239;51.680;5.976;2024-03-08T01:34:11;35.01;31.60;44.21;;
66888;Laerm;67239;51.680;5.976;2024-03-08T01:36:38;34.54;31.13;39.67;;
66888;Laerm;67239;51.680;5.976;2024-03-08T01:39:06;34.14;31.63;39.08;;
66888;Laerm;67239;51.680;5.976;2024-03-08T01:41:35;33.54;31.34;36.59;;
66888;Laerm;67239;51.680;5.976;2024-03-08T01:44:03;33.62;31.21;46.60;;
66888;Laerm;67239;51.680;5.976;2024-03-08T01:46:31;33.88;31.39;37.37;;
66888;Laerm;67239;51.680;5.976;2024-03-08T01:49:00;34.42;31.13;44.48;;
66888;Laerm;67239;51.680;5.976;2024-03-08T01:51:29;34.37;30.71;41.23;;
66888;Laerm;67239;51.680;5.976;2024-03-08T01:54:01;34.86;31.35;43.30;;
66888;Laerm;67239;51.680;5.976;2024-03-08T01:56:30;34.39;31.82;37.83;;
66888;Laerm;67239;51.680;5.976;2024-03-08T01:58:59;57.98;31.59;78.36;;
66888;Laerm;67239;51.680;5.976;2024-03-08T02:01:28;34.18;31.46;43.25;;
66888;Laerm;67239;51.680;5.976;2024-03-08T02:03:56;33.68;30.76;36.67;;
66888;Laerm;67239;51.680;5.976;2024-03-08T02:06:23;56.74;30.95;75.12;;
66888;Laerm;67239;51.680;5.976;2024-03-08T02:08:51;55.05;31.60;76.69;;
66888;Laerm;67239;51.680;5.976;2024-03-08T02:11:19;34.44;31.61;40.05;;
66888;Laerm;67239;51.680;5.976;2024-03-08T02:13:47;34.09;31.47;36.55;;
66888;Laerm;67239;51.680;5.976;2024-03-08T02:16:21;34.59;31.89;38.37;;
66888;Laerm;67239;51.680;5.976;2024-03-08T02:18:49;63.05;32.37;83.27;;
66888;Laerm;67239;51.680;5.976;2024-03-08T02:21:18;34.82;31.74;39.59;;
66888;Laerm;67239;51.680;5.976;2024-03-08T02:23:46;35.25;31.25;44.01;;
66888;Laerm;67239;51.680;5.976;2024-03-08T02:26:13;34.40;31.52;39.06;;
66888;Laerm;67239;51.680;5.976;2024-03-08T02:28:41;33.98;31.20;38.55;;
66888;Laerm;67239;51.680;5.976;2024-03-08T02:31:10;34.47;31.85;41.96;;
66888;Laerm;67239;51.680;5.976;2024-03-08T02:33:38;34.32;32.14;37.36;;
66888;Laerm;67239;51.680;5.976;2024-03-08T02:36:06;34.50;31.87;38.30;;
66888;Laerm;67239;51.680;5.976;2024-03-08T02:38:33;38.80;32.48;48.49;;
66888;Laerm;67239;51.680;5.976;2024-03-08T02:41:00;34.95;31.73;39.38;;
66888;Laerm;67239;51.680;5.976;2024-03-08T02:43:28;36.08;31.75;42.90;;
66888;Laerm;67239;51.680;5.976;2024-03-08T02:45:55;38.20;32.42;47.32;;
66888;Laerm;67239;51.680;5.976;2024-03-08T02:48:22;35.39;32.07;40.68;;
66888;Laerm;67239;51.680;5.976;2024-03-08T02:50:50;35.90;32.13;42.15;;
66888;Laerm;67239;51.680;5.976;2024-03-08T02:53:19;56.64;32.85;76.15;;
66888;Laerm;67239;51.680;5.976;2024-03-08T02:55:46;63.67;32.67;77.68;;
66888;Laerm;67239;51.680;5.976;2024-03-08T02:58:14;37.32;33.00;46.82;;
66888;Laerm;67239;51.680;5.976;2024-03-08T03:00:42;59.74;32.67;76.18;;
66888;Laerm;67239;51.680;5.976;2024-03-08T03:03:11;34.07;31.64;45.58;;
66888;Laerm;67239;51.680;5.976;2024-03-08T03:05:38;57.74;31.00;77.13;;
66888;Laerm;67239;51.680;5.976;2024-03-08T03:08:13;36.34;31.63;51.91;;
66888;Laerm;67239;51.680;5.976;2024-03-08T03:10:42;34.41;31.30;41.73;;
66888;Laerm;67239;51.680;5.976;2024-03-08T03:13:09;36.11;32.08;42.86;;
66888;Laerm;67239;51.680;5.976;2024-03-08T03:15:37;34.63;31.17;39.95;;
66888;Laerm;67239;51.680;5.976;2024-03-08T03:18:05;35.34;32.32;39.37;;
66888;Laerm;67239;51.680;5.976;2024-03-08T03:20:35;34.96;31.84;42.05;;
66888;Laerm;67239;51.680;5.976;2024-03-08T03:23:09;35.98;32.47;43.18;;
66888;Laerm;67239;51.680;5.976;2024-03-08T03:25:36;34.14;31.71;40.57;;
66888;Laerm;67239;51.680;5.976;2024-03-08T03:28:06;34.03;31.43;37.33;;
66888;Laerm;67239;51.680;5.976;2024-03-08T03:30:35;35.93;31.64;49.90;;
66888;Laerm;67239;51.680;5.976;2024-03-08T03:33:03;36.55;32.79;40.95;;
66888;Laerm;67239;51.680;5.976;2024-03-08T03:35:37;60.75;32.40;81.94;;
66888;Laerm;67239;51.680;5.976;2024-03-08T03:38:05;37.00;32.83;46.27;;
66888;Laerm;67239;51.680;5.976;2024-03-08T03:40:39;60.84;32.57;80.95;;
66888;Laerm;67239;51.680;5.976;2024-03-08T03:43:07;36.47;32.76;44.47;;
66888;Laerm;67239;51.680;5.976;2024-03-08T03:45:37;38.47;33.27;50.06;;
66888;Laerm;67239;51.680;5.976;2024-03-08T03:48:06;63.70;34.78;84.40;;
66888;Laerm;67239;51.680;5.976;2024-03-08T03:50:38;37.04;33.23;44.55;;
66888;Laerm;67239;51.680;5.976;2024-03-08T03:53:08;59.01;34.36;77.10;;
66888;Laerm;67239;51.680;5.976;2024-03-08T03:55:38;52.23;35.22;74.59;;
66888;Laerm;67239;51.680;5.976;2024-03-08T03:58:08;38.77;33.41;47.99;;
66888;Laerm;67239;51.680;5.976;2024-03-08T04:00:39;38.83;33.74;52.07;;
66888;Laerm;67239;51.680;5.976;2024-03-08T04:03:06;63.59;34.79;83.34;;
66888;Laerm;67239;51.680;5.976;2024-03-08T04:05:37;53.46;35.23;69.61;;
66888;Laerm;67239;51.680;5.976;2024-03-08T04:08:10;56.74;35.11;75.92;;
66888;Laerm;67239;51.680;5.976;2024-03-08T04:10:37;59.57;35.89;80.27;;
66888;Laerm;67239;51.680;5.976;2024-03-08T04:13:04;59.16;37.67;73.33;;
66888;Laerm;67239;51.680;5.976;2024-03-08T04:15:31;59.76;35.64;75.87;;
66888;Laerm;67239;51.680;5.976;2024-03-08T04:17:58;62.13;36.47;78.19;;
66888;Laerm;67239;51.680;5.976;2024-03-08T04:20:27;63.27;37.52;80.78;;
66888;Laerm;67239;51.680;5.976;2024-03-08T04:22:55;62.51;35.18;84.20;;
66888;Laerm;67239;51.680;5.976;2024-03-08T04:25:23;60.38;35.07;79.72;;
66888;Laerm;67239;51.680;5.976;2024-03-08T04:27:50;63.87;36.38;80.99;;
66888;Laerm;67239;51.680;5.976;2024-03-08T04:30:19;62.36;38.20;77.14;;
66888;Laerm;67239;51.680;5.976;2024-03-08T04:32:48;66.81;37.11;85.29;;
66888;Laerm;67239;51.680;5.976;2024-03-08T04:35:16;61.34;39.42;75.69;;
66888;Laerm;67239;51.680;5.976;2024-03-08T04:37:43;66.49;39.51;80.39;;
66888;Laerm;67239;51.680;5.976;2024-03-08T04:40:12;64.49;36.45;80.07;;
66888;Laerm;67239;51.680;5.976;2024-03-08T04:42:42;62.54;38.76;75.02;;
66888;Laerm;67239;51.680;5.976;2024-03-08T04:45:10;65.52;37.24;81.65;;
66888;Laerm;67239;51.680;5.976;2024-03-08T04:47:41;63.58;36.56;85.30;;
66888;Laerm;67239;51.680;5.976;2024-03-08T04:50:09;63.35;36.42;80.28;;
66888;Laerm;67239;51.680;5.976;2024-03-08T04:52:36;67.91;37.80;82.37;;
66888;Laerm;67239;51.680;5.976;2024-03-08T04:55:04;63.63;36.59;83.01;;
66888;Laerm;67239;51.680;5.976;2024-03-08T04:57:32;60.88;37.69;79.35;;
66888;Laerm;67239;51.680;5.976;2024-03-08T04:59:59;65.39;37.78;82.32;;
66888;Laerm;67239;51.680;5.976;2024-03-08T05:02:26;61.61;37.06;78.40;;
66888;Laerm;67239;51.680;5.976;2024-03-08T05:04:54;62.75;39.25;76.11;;
66888;Laerm;67239;51.680;5.976;2024-03-08T05:07:21;68.38;39.83;83.10;;
66888;Laerm;67239;51.680;5.976;2024-03-08T05:09:48;66.00;39.01;82.52;;
66888;Laerm;67239;51.680;5.976;2024-03-08T05:12:19;67.58;41.18;81.12;;
66888;Laerm;67239;51.680;5.976;2024-03-08T05:14:46;67.58;44.90;83.32;;
66888;Laerm;67239;51.680;5.976;2024-03-08T05:17:17;65.60;39.24;78.62;;
66888;Laerm;67239;51.680;5.976;2024-03-08T05:19:44;64.16;39.72;80.17;;
66888;Laerm;67239;51.680;5.976;2024-03-08T05:22:12;66.06;38.47;79.37;;
66888;Laerm;67239;51.680;5.976;2024-03-08T05:24:40;66.89;41.08;82.20;;
66888;Laerm;67239;51.680;5.976;2024-03-08T05:27:07;66.96;40.10;82.41;;
66888;Laerm;67239;51.680;5.976;2024-03-08T05:29:34;64.05;41.42;79.69;;
66888;Laerm;67239;51.680;5.976;2024-03-08T05:32:01;63.05;40.86;80.69;;
66888;Laerm;67239;51.680;5.976;2024-03-08T05:34:31;66.44;41.96;80.48;;
66888;Laerm;67239;51.680;5.976;2024-03-08T05:36:59;68.59;42.73;88.61;;
66888;Laerm;67239;51.680;5.976;2024-03-08T05:39:27;59.16;41.57;75.42;;
66888;Laerm;67239;51.680;5.976;2024-03-08T05:41:55;64.34;45.74;77.23;;
66888;Laerm;67239;51.680;5.976;2024-03-08T05:44:23;68.31;49.15;82.44;;
66888;Laerm;67239;51.680;5.976;2024-03-08T05:46:50;67.83;42.60;84.38;;
66888;Laerm;67239;51.680;5.976;2024-03-08T05:49:17;66.90;43.01;80.92;;
66888;Laerm;67239;51.680;5.976;2024-03-08T05:51:45;66.69;42.71;79.06;;
66888;Laerm;67239;51.680;5.976;2024-03-08T05:54:15;68.68;47.40;80.94;;
66888;Laerm;67239;51.680;5.976;2024-03-08T05:56:46;68.53;45.02;83.92;;
66888;Laerm;67239;51.680;5.976;2024-03-08T05:59:14;69.76;49.67;83.22;;
66888;Laerm;67239;51.680;5.976;2024-03-08T06:01:41;66.70;41.34;80.88;;
66888;Laerm;67239;51.680;5.976;2024-03-08T06:04:10;64.32;40.05;78.90;;
66888;Laerm;67239;51.680;5.976;2024-03-08T06:06:41;64.52;44.22;79.77;;
66888;Laerm;67239;51.680;5.976;2024-03-08T06:09:09;68.99;43.07;81.92;;
66888;Laerm;67239;51.680;5.976;2024-03-08T06:11:39;62.80;42.82;80.81;;
66888;Laerm;67239;51.680;5.976;2024-03-08T06:14:06;67.16;41.75;79.78;;
66888;Laerm;67239;51.680;5.976;2024-03-08T06:16:33;66.55;43.19;79.77;;
66888;Laerm;67239;51.680;5.976;2024-03-08T06:19:03;72.57;53.80;86.65;;
66888;Laerm;67239;51.680;5.976;2024-03-08T06:21:31;69.91;42.95;83.89;;
66888;Laerm;67239;51.680;5.976;2024-03-08T06:23:59;67.24;43.00;80.39;;
66888;Laerm;67239;51.680;5.976;2024-03-08T06:26:27;67.88;50.47;79.84;;
66888;Laerm;67239;51.680;5.976;2024-03-08T06:28:58;63.62;40.88;75.53;;
66888;Laerm;67239;51.680;5.976;2024-03-08T06:31:25;65.70;41.78;80.49;;
66888;Laerm;67239;51.680;5.976;2024-03-08T06:33:53;68.86;43.74;85.76;;
66888;Laerm;67239;51.680;5.976;2024-03-08T06:36:24;67.73;43.28;81.09;;
66888;Laerm;67239;51.680;5.976;2024-03-08T06:38:51;71.25;40.78;87.73;;
66888;Laerm;67239;51.680;5.976;2024-03-08T06:41:19;67.35;45.34;79.58;;
66888;Laerm;67239;51.680;5.976;2024-03-08T06:43:47;67.97;45.70;82.91;;
66888;Laerm;67239;51.680;5.976;2024-03-08T06:46:16;67.55;42.51;83.39;;
66888;Laerm;67239;51.680;5.976;2024-03-08T06:48:43;67.32;44.36;80.49;;
66888;Laerm;67239;51.680;5.976;2024-03-08T06:51:13;65.25;44.45;77.63;;
66888;Laerm;67239;51.680;5.976;2024-03-08T06:53:41;71.92;45.94;84.47;;
66888;Laerm;67239;51.680;5.976;2024-03-08T06:56:09;68.39;43.92;80.65;;
66888;Laerm;67239;51.680;5.976;2024-03-08T06:58:36;70.19;46.94;80.22;;
66888;Laerm;67239;51.680;5.976;2024-03-08T07:01:04;69.62;42.29;85.11;;
66888;Laerm;67239;51.680;5.976;2024-03-08T07:03:35;68.78;42.86;81.19;;
66888;Laerm;67239;51.680;5.976;2024-03-08T07:06:03;69.84;44.83;83.03;;
66888;Laerm;67239;51.680;5.976;2024-03-08T07:08:35;70.23;45.84;87.11;;
66888;Laerm;67239;51.680;5.976;2024-03-08T07:11:02;69.50;43.50;82.70;;
66888;Laerm;67239;51.680;5.976;2024-03-08T07:13:30;68.83;45.11;84.10;;
66888;Laerm;67239;51.680;5.976;2024-03-08T07:15:57;69.40;44.87;84.81;;
66888;Laerm;67239;51.680;5.976;2024-03-08T07:18:28;68.72;48.13;79.39;;
66888;Laerm;67239;51.680;5.976;2024-03-08T07:20:57;69.81;47.27;82.48;;
66888;Laerm;67239;51.680;5.976;2024-03-08T07:23:25;68.10;45.72;80.68;;
66888;Laerm;67239;51.680;5.976;2024-03-08T07:26:27;68.74;44.91;85.53;;
66888;Laerm;67239;51.680;5.976;2024-03-08T07:28:55;68.83;46.08;80.27;;
66888;Laerm;67239;51.680;5.976;2024-03-08T07:31:22;70.75;45.19;82.48;;
66888;Laerm;67239;51.680;5.976;2024-03-08T07:34:04;70.38;49.44;80.43;;
66888;Laerm;67239;51.680;5.976;2024-03-08T07:36:34;68.86;42.90;81.39;;
66888;Laerm;67239;51.680;5.976;2024-03-08T07:39:04;67.91;44.22;81.32;;
66888;Laerm;67239;51.680;5.976;2024-03-08T07:41:38;68.05;43.69;80.15;;
66888;Laerm;67239;51.680;5.976;2024-03-08T07:44:07;66.66;42.19;80.72;;
66888;Laerm;67239;51.680;5.976;2024-03-08T07:46:34;70.23;46.24;84.60;;
66888;Laerm;67239;51.680;5.976;2024-03-08T07:49:03;65.99;42.72;83.49;;
66888;Laerm;67239;51.680;5.976;2024-03-08T07:51:30;66.60;43.07;79.87;;
66888;Laerm;67239;51.680;5.976;2024-03-08T07:53:57;68.11;43.63;85.13;;
66888;Laerm;67239;51.680;5.976;2024-03-08T07:56:24;67.28;44.23;78.16;;
66888;Laerm;67239;51.680;5.976;2024-03-08T07:58:52;67.88;41.30;82.15;;
66888;Laerm;67239;51.680;5.976;2024-03-08T08:01:20;70.20;43.85;85.34;;
66888;Laerm;67239;51.680;5.976;2024-03-08T08:03:48;68.33;44.27;81.06;;
66888;Laerm;67239;51.680;5.976;2024-03-08T08:06:18;66.79;43.12;80.82;;
66888;Laerm;67239;51.680;5.976;2024-03-08T08:08:45;70.18;47.82;85.29;;
66888;Laerm;67239;51.680;5.976;2024-03-08T08:11:12;68.87;45.91;79.15;;
66888;Laerm;67239;51.680;5.976;2024-03-08T08:13:39;67.14;43.68;77.34;;
66888;Laerm;67239;51.680;5.976;2024-03-08T08:16:06;66.34;42.25;81.36;;
66888;Laerm;67239;51.680;5.976;2024-03-08T08:18:34;67.68;41.58;82.04;;
66888;Laerm;67239;51.680;5.976;2024-03-08T08:21:03;70.25;41.88;84.46;;
66888;Laerm;67239;51.680;5.976;2024-03-08T08:23:33;70.12;42.37;83.03;;
66888;Laerm;67239;51.680;5.976;2024-03-08T08:26:00;68.36;43.95;81.02;;
66888;Laerm;67239;51.680;5.976;2024-03-08T08:28:28;66.72;42.55;79.69;;
66888;Laerm;67239;51.680;5.976;2024-03-08T08:30:55;68.22;43.60;81.86;;
66888;Laerm;67239;51.680;5.976;2024-03-08T08:33:22;67.60;44.67;83.35;;
66888;Laerm;67239;51.680;5.976;2024-03-08T08:35:52;69.00;41.93;83.52;;
66888;Laerm;67239;51.680;5.976;2024-03-08T08:38:21;68.53;42.66;81.45;;
66888;Laerm;67239;51.680;5.976;2024-03-08T08:40:48;72.12;51.52;84.37;;
66888;Laerm;67239;51.680;5.976;2024-03-08T08:43:17;70.10;43.24;80.67;;
66888;Laerm;67239;51.680;5.976;2024-03-08T08:45:44;65.45;40.17;81.95;;
66888;Laerm;67239;51.680;5.976;2024-03-08T08:48:14;66.22;45.14;80.64;;
66888;Laerm;67239;51.680;5.976;2024-03-08T08:50:43;68.22;47.58;80.94;;
66888;Laerm;67239;51.680;5.976;2024-03-08T08:53:11;66.63;45.13;81.86;;
66888;Laerm;67239;51.680;5.976;2024-03-08T08:55:40;67.25;45.34;79.95;;
66888;Laerm;67239;51.680;5.976;2024-03-08T08:58:07;68.06;42.67;82.14;;
66888;Laerm;67239;51.680;5.976;2024-03-08T09:00:34;60.29;42.15;73.12;;
66888;Laerm;67239;51.680;5.976;2024-03-08T09:03:02;66.52;42.83;79.81;;
66888;Laerm;67239;51.680;5.976;2024-03-08T09:05:30;67.44;43.38;82.44;;
66888;Laerm;67239;51.680;5.976;2024-03-08T09:07:57;67.90;45.23;80.38;;
66888;Laerm;67239;51.680;5.976;2024-03-08T09:10:24;66.53;43.06;80.47;;
66888;Laerm;67239;51.680;5.976;2024-03-08T09:12:54;69.15;44.09;81.03;;
66888;Laerm;67239;51.680;5.976;2024-03-08T09:15:22;68.50;45.25;82.44;;
66888;Laerm;67239;51.680;5.976;2024-03-08T09:17:49;70.26;44.29;85.51;;
66888;Laerm;67239;51.680;5.976;2024-03-08T09:20:18;68.09;42.12;80.30;;
66888;Laerm;67239;51.680;5.976;2024-03-08T09:22:45;68.96;43.91;81.61;;
66888;Laerm;67239;51.680;5.976;2024-03-08T09:25:13;66.45;41.89;80.07;;
66888;Laerm;67239;51.680;5.976;2024-03-08T09:27:41;68.22;43.02;80.54;;
66888;Laerm;67239;51.680;5.976;2024-03-08T09:30:09;67.40;43.22;77.98;;
66888;Laerm;67239;51.680;5.976;2024-03-08T09:32:36;70.04;49.64;84.21;;
66888;Laerm;67239;51.680;5.976;2024-03-08T09:35:05;70.23;49.25;81.45;;
66888;Laerm;67239;51.680;5.976;2024-03-08T09:37:35;69.53;46.24;82.59;;
66888;Laerm;67239;51.680;5.976;2024-03-08T09:40:03;64.78;42.05;78.73;;
66888;Laerm;67239;51.680;5.976;2024-03-08T09:42:32;69.45;41.72;84.33;;
66888;Laerm;67239;51.680;5.976;2024-03-08T09:45:00;63.83;40.29;76.48;;
66888;Laerm;67239;51.680;5.976;2024-03-08T09:47:28;67.66;39.85;81.47;;
66888;Laerm;67239;51.680;5.976;2024-03-08T09:50:01;66.86;42.62;82.28;;
66888;Laerm;67239;51.680;5.976;2024-03-08T09:52:29;68.15;44.91;77.78;;
66888;Laerm;67239;51.680;5.976;2024-03-08T09:54:58;68.56;41.23;80.82;;
66888;Laerm;67239;51.680;5.976;2024-03-08T09:57:26;66.14;41.70;82.87;;
66888;Laerm;67239;51.680;5.976;2024-03-08T09:59:53;65.59;39.97;78.95;;
66888;Laerm;67239;51.680;5.976;2024-03-08T10:02:20;64.48;40.42;76.16;;
66888;Laerm;67239;51.680;5.976;2024-03-08T10:04:48;70.23;44.19;83.75;;
66888;Laerm;67239;51.680;5.976;2024-03-08T10:07:15;66.85;44.95;79.92;;
66888;Laerm;67239;51.680;5.976;2024-03-08T10:09:43;66.01;41.03;80.51;;
66888;Laerm;67239;51.680;5.976;2024-03-08T10:12:17;67.61;42.90;78.59;;
66888;Laerm;67239;51.680;5.976;2024-03-08T10:14:45;70.00;49.77;81.58;;
66888;Laerm;67239;51.680;5.976;2024-03-08T10:17:13;66.91;43.69;82.13;;
66888;Laerm;67239;51.680;5.976;2024-03-08T10:19:50;68.97;40.90;90.92;;
66888;Laerm;67239;51.680;5.976;2024-03-08T10:22:19;67.02;44.51;81.74;;
66888;Laerm;67239;51.680;5.976;2024-03-08T10:24:47;68.90;44.93;82.93;;
66888;Laerm;67239;51.680;5.976;2024-03-08T10:27:17;64.79;40.80;81.38;;
66888;Laerm;67239;51.680;5.976;2024-03-08T10:29:48;65.79;40.07;79.25;;
66888;Laerm;67239;51.680;5.976;2024-03-08T10:32:17;66.96;41.98;79.53;;
66888;Laerm;67239;51.680;5.976;2024-03-08T10:34:44;67.81;46.03;81.35;;
66888;Laerm;67239;51.680;5.976;2024-03-08T10:37:15;65.39;41.49;78.74;;
66888;Laerm;67239;51.680;5.976;2024-03-08T10:40:15;67.06;42.39;79.78;;
66888;Laerm;67239;51.680;5.976;2024-03-08T10:42:57;67.07;42.25;82.34;;
66888;Laerm;67239;51.680;5.976;2024-03-08T10:45:37;67.21;41.35;78.67;;
66888;Laerm;67239;51.680;5.976;2024-03-08T10:48:30;68.15;41.92;81.82;;
66888;Laerm;67239;51.680;5.976;2024-03-08T10:51:05;65.55;42.85;76.80;;
66888;Laerm;67239;51.680;5.976;2024-03-08T10:53:36;70.60;43.81;83.79;;
66888;Laerm;67239;51.680;5.976;2024-03-08T10:56:04;67.81;44.59;79.92;;
66888;Laerm;67239;51.680;5.976;2024-03-08T10:58:34;69.48;43.07;81.01;;
66888;Laerm;67239;51.680;5.976;2024-03-08T11:01:03;68.07;46.13;81.77;;
66888;Laerm;67239;51.680;5.976;2024-03-08T11:06:08;67.44;42.58;80.32;;
66888;Laerm;67239;51.680;5.976;2024-03-08T11:08:38;69.08;49.16;78.95;;
66888;Laerm;67239;51.680;5.976;2024-03-08T11:11:24;69.67;48.22;83.02;;
66888;Laerm;67239;51.680;5.976;2024-03-08T11:13:59;69.22;48.50;80.82;;
66888;Laerm;67239;51.680;5.976;2024-03-08T11:19:44;68.90;47.32;83.32;;
66888;Laerm;67239;51.680;5.976;2024-03-08T11:21:43;67.33;42.02;79.28;;
66888;Laerm;67239;51.680;5.976;2024-03-08T11:24:13;69.45;49.00;82.86;;
66888;Laerm;67239;51.680;5.976;2024-03-08T11:26:45;69.63;43.28;80.98;;
66888;Laerm;67239;51.680;5.976;2024-03-08T11:34:49;67.10;43.89;79.66;;
66888;Laerm;67239;51.680;5.976;2024-03-08T11:37:21;70.67;43.97;82.46;;
66888;Laerm;67239;51.680;5.976;2024-03-08T11:39:53;69.38;42.48;80.39;;
66888;Laerm;67239;51.680;5.976;2024-03-08T11:42:26;68.27;41.60;83.72;;
66888;Laerm;67239;51.680;5.976;2024-03-08T11:44:53;65.19;42.11;79.26;;
66888;Laerm;67239;51.680;5.976;2024-03-08T11:47:21;66.15;41.19;80.95;;
66888;Laerm;67239;51.680;5.976;2024-03-08T11:49:48;67.23;43.85;81.05;;
66888;Laerm;67239;51.680;5.976;2024-03-08T11:52:17;69.32;45.85;83.55;;
66888;Laerm;67239;51.680;5.976;2024-03-08T11:54:53;69.51;43.89;81.12;;
66888;Laerm;67239;51.680;5.976;2024-03-08T11:57:25;68.79;44.60;82.48;;
66888;Laerm;67239;51.680;5.976;2024-03-08T11:59:55;66.92;42.13;79.42;;
66888;Laerm;67239;51.680;5.976;2024-03-08T12:02:27;71.08;42.26;83.76;;
66888;Laerm;67239;51.680;5.976;2024-03-08T12:04:59;68.93;43.67;82.23;;
66888;Laerm;67239;51.680;5.976;2024-03-08T12:07:29;65.84;42.80;79.93;;
66888;Laerm;67239;51.680;5.976;2024-03-08T12:10:19;68.58;42.46;82.76;;
66888;Laerm;67239;51.680;5.976;2024-03-08T12:12:52;68.92;45.19;81.79;;
66888;Laerm;67239;51.680;5.976;2024-03-08T12:15:24;66.92;42.73;78.90;;
66888;Laerm;67239;51.680;5.976;2024-03-08T12:17:54;67.50;48.21;77.51;;
66888;Laerm;67239;51.680;5.976;2024-03-08T12:20:25;70.82;48.78;84.52;;
66888;Laerm;67239;51.680;5.976;2024-03-08T12:22:53;69.10;46.37;78.86;;
66888;Laerm;67239;51.680;5.976;2024-03-08T12:25:32;69.13;43.48;85.38;;
66888;Laerm;67239;51.680;5.976;2024-03-08T12:28:11;70.71;49.36;83.72;;
66888;Laerm;67239;51.680;5.976;2024-03-08T12:30:49;69.31;44.63;82.10;;
66888;Laerm;67239;51.680;5.976;2024-03-08T12:33:20;67.77;44.84;79.81;;
66888;Laerm;67239;51.680;5.976;2024-03-08T12:35:51;69.08;43.04;81.53;;
66888;Laerm;67239;51.680;5.976;2024-03-08T12:38:24;69.67;47.54;82.90;;
66888;Laerm;67239;51.680;5.976;2024-03-08T12:41:00;68.14;45.89;82.41;;
66888;Laerm;67239;51.680;5.976;2024-03-08T12:43:29;71.48;47.94;87.86;;
66888;Laerm;67239;51.680;5.976;2024-03-08T12:46:01;69.64;50.08;82.34;;
66888;Laerm;67239;51.680;5.976;2024-03-08T12:48:34;70.94;45.89;83.25;;
66888;Laerm;67239;51.680;5.976;2024-03-08T12:51:01;69.83;47.30;82.68;;
66888;Laerm;67239;51.680;5.976;2024-03-08T12:53:28;68.31;43.69;80.86;;
66888;Laerm;67239;51.680;5.976;2024-03-08T12:55:56;70.23;49.50;82.37;;
66888;Laerm;67239;51.680;5.976;2024-03-08T12:58:24;71.14;46.99;81.60;;
66888;Laerm;67239;51.680;5.976;2024-03-08T13:00:53;71.48;50.05;83.49;;
66888;Laerm;67239;51.680;5.976;2024-03-08T13:03:20;69.98;48.36;83.75;;
66888;Laerm;67239;51.680;5.976;2024-03-08T13:05:50;71.57;50.51;84.90;;
66888;Laerm;67239;51.680;5.976;2024-03-08T13:08:17;71.97;51.15;82.32;;
66888;Laerm;67239;51.680;5.976;2024-03-08T13:10:45;69.09;49.63;79.25;;
66888;Laerm;67239;51.680;5.976;2024-03-08T13:13:12;70.73;51.53;81.65;;
66888;Laerm;67239;51.680;5.976;2024-03-08T13:15:40;70.17;51.39;87.34;;
66888;Laerm;67239;51.680;5.976;2024-03-08T13:18:11;69.42;49.11;83.87;;
66888;Laerm;67239;51.680;5.976;2024-03-08T13:20:38;67.22;47.90;80.73;;
66888;Laerm;67239;51.680;5.976;2024-03-08T13:23:14;69.53;49.76;81.22;;
66888;Laerm;67239;51.680;5.976;2024-03-08T13:25:41;69.52;46.10;82.32;;
66888;Laerm;67239;51.680;5.976;2024-03-08T13:28:10;68.32;44.56;81.94;;
66888;Laerm;67239;51.680;5.976;2024-03-08T13:30:38;67.69;46.77;79.04;;
66888;Laerm;67239;51.680;5.976;2024-03-08T13:33:05;70.35;47.29;82.30;;
66888;Laerm;67239;51.680;5.976;2024-03-08T13:35:34;69.51;47.78;80.18;;
66888;Laerm;67239;51.680;5.976;2024-03-08T13:38:01;68.96;49.17;79.39;;
66888;Laerm;67239;51.680;5.976;2024-03-08T13:40:31;68.39;43.56;81.12;;
66888;Laerm;67239;51.680;5.976;2024-03-08T13:42:58;70.24;44.49;84.55;;
66888;Laerm;67239;51.680;5.976;2024-03-08T13:45:28;70.72;48.38;81.44;;
66888;Laerm;67239;51.680;5.976;2024-03-08T13:47:55;70.53;46.18;83.76;;
66888;Laerm;67239;51.680;5.976;2024-03-08T13:50:22;67.90;47.07;81.31;;
66888;Laerm;67239;51.680;5.976;2024-03-08T13:52:51;70.68;49.58;83.99;;
66888;Laerm;67239;51.680;5.976;2024-03-08T13:55:21;70.39;50.59;80.84;;
66888;Laerm;67239;51.680;5.976;2024-03-08T13:57:49;68.80;49.70;79.71;;
66888;Laerm;67239;51.680;5.976;2024-03-08T14:00:18;69.14;45.20;80.12;;
66888;Laerm;67239;51.680;5.976;2024-03-08T14:02:50;66.79;43.23;81.64;;
66888;Laerm;67239;51.680;5.976;2024-03-08T14:05:17;68.61;46.43;81.39;;